sensor_id;sensor_type;location;lat;lon;timestamp;P1;durP1;ratioP1;P2;durP2;ratioP2
68126;SDS011;54931;52.098;21.006;2022-11-06T00:00:06;33.80;;;13.60;;
68126;SDS011;54931;52.098;21.006;2022-11-06T00:02:56;33.70;;;14.30;;
68126;SDS011;54931;52.098;21.006;2022-11-06T00:05:28;30.20;;;13.10;;
68126;SDS011;54931;52.098;21.006;2022-11-06T00:08:15;33.00;;;15.10;;
68126;SDS011;54931;52.098;21.006;2022-11-06T00:10:42;30.10;;;14.30;;
68126;SDS011;54931;52.098;21.006;2022-11-06T00:13:09;30.40;;;13.20;;
68126;SDS011;54931;52.098;21.006;2022-11-06T00:15:36;30.40;;;13.10;;
68126;SDS011;54931;52.098;21.006;2022-11-06T00:18:03;34.40;;;15.30;;
68126;SDS011;54931;52.098;21.006;2022-11-06T00:20:30;28.70;;;12.50;;
68126;SDS011;54931;52.098;21.006;2022-11-06T00:22:59;34.70;;;13.20;;
68126;SDS011;54931;52.098;21.006;2022-11-06T00:25:26;31.60;;;13.20;;
68126;SDS011;54931;52.098;21.006;2022-11-06T00:27:53;32.80;;;12.80;;
68126;SDS011;54931;52.098;21.006;2022-11-06T00:30:20;34.90;;;12.50;;
68126;SDS011;54931;52.098;21.006;2022-11-06T00:32:47;29.40;;;12.40;;
68126;SDS011;54931;52.098;21.006;2022-11-06T00:35:15;28.50;;;13.10;;
68126;SDS011;54931;52.098;21.006;2022-11-06T00:37:42;34.70;;;12.30;;
68126;SDS011;54931;52.098;21.006;2022-11-06T00:40:10;26.40;;;11.50;;
68126;SDS011;54931;52.098;21.006;2022-11-06T00:42:38;31.40;;;12.70;;
68126;SDS011;54931;52.098;21.006;2022-11-06T00:45:05;34.60;;;12.40;;
68126;SDS011;54931;52.098;21.006;2022-11-06T00:47:33;29.70;;;12.00;;
68126;SDS011;54931;52.098;21.006;2022-11-06T00:50:00;31.20;;;13.10;;
68126;SDS011;54931;52.098;21.006;2022-11-06T00:52:29;26.80;;;12.00;;
68126;SDS011;54931;52.098;21.006;2022-11-06T00:54:56;30.30;;;14.20;;
68126;SDS011;54931;52.098;21.006;2022-11-06T00:57:23;28.80;;;12.30;;
68126;SDS011;54931;52.098;21.006;2022-11-06T00:59:50;26.30;;;12.30;;
68126;SDS011;54931;52.098;21.006;2022-11-06T01:02:17;32.00;;;13.80;;
68126;SDS011;54931;52.098;21.006;2022-11-06T01:04:45;31.60;;;13.50;;
68126;SDS011;54931;52.098;21.006;2022-11-06T01:07:12;36.70;;;15.60;;
68126;SDS011;54931;52.098;21.006;2022-11-06T01:09:40;31.10;;;14.20;;
68126;SDS011;54931;52.098;21.006;2022-11-06T01:12:07;36.00;;;14.90;;
68126;SDS011;54931;52.098;21.006;2022-11-06T01:14:34;37.20;;;14.90;;
68126;SDS011;54931;52.098;21.006;2022-11-06T01:17:01;34.70;;;15.30;;
68126;SDS011;54931;52.098;21.006;2022-11-06T01:19:28;35.70;;;14.70;;
68126;SDS011;54931;52.098;21.006;2022-11-06T01:21:56;31.90;;;14.40;;
68126;SDS011;54931;52.098;21.006;2022-11-06T01:24:27;33.50;;;14.90;;
68126;SDS011;54931;52.098;21.006;2022-11-06T01:26:54;33.20;;;14.80;;
68126;SDS011;54931;52.098;21.006;2022-11-06T01:29:22;33.20;;;14.30;;
68126;SDS011;54931;52.098;21.006;2022-11-06T01:31:49;30.20;;;14.50;;
68126;SDS011;54931;52.098;21.006;2022-11-06T01:34:17;33.20;;;15.70;;
68126;SDS011;54931;52.098;21.006;2022-11-06T01:36:44;35.60;;;15.50;;
68126;SDS011;54931;52.098;21.006;2022-11-06T01:39:13;38.70;;;16.00;;
68126;SDS011;54931;52.098;21.006;2022-11-06T01:41:47;37.70;;;14.40;;
68126;SDS011;54931;52.098;21.006;2022-11-06T01:47:04;38.40;;;16.20;;
68126;SDS011;54931;52.098;21.006;2022-11-06T01:49:44;36.80;;;14.70;;
68126;SDS011;54931;52.098;21.006;2022-11-06T01:52:13;27.50;;;14.10;;
68126;SDS011;54931;52.098;21.006;2022-11-06T01:54:43;39.40;;;16.90;;
68126;SDS011;54931;52.098;21.006;2022-11-06T01:57:15;38.60;;;15.30;;
68126;SDS011;54931;52.098;21.006;2022-11-06T01:59:44;37.10;;;15.90;;
68126;SDS011;54931;52.098;21.006;2022-11-06T02:02:13;44.70;;;16.20;;
68126;SDS011;54931;52.098;21.006;2022-11-06T02:04:44;38.20;;;15.70;;
68126;SDS011;54931;52.098;21.006;2022-11-06T02:07:14;42.00;;;16.50;;
68126;SDS011;54931;52.098;21.006;2022-11-06T02:09:44;39.40;;;16.30;;
68126;SDS011;54931;52.098;21.006;2022-11-06T02:24:22;36.90;;;15.90;;
68126;SDS011;54931;52.098;21.006;2022-11-06T02:27:17;37.40;;;15.40;;
68126;SDS011;54931;52.098;21.006;2022-11-06T02:30:05;38.80;;;15.50;;
68126;SDS011;54931;52.098;21.006;2022-11-06T02:32:38;38.70;;;15.40;;
68126;SDS011;54931;52.098;21.006;2022-11-06T02:35:34;33.60;;;15.60;;
68126;SDS011;54931;52.098;21.006;2022-11-06T02:38:11;38.90;;;15.80;;
68126;SDS011;54931;52.098;21.006;2022-11-06T02:40:49;37.40;;;14.40;;
68126;SDS011;54931;52.098;21.006;2022-11-06T02:43:21;34.60;;;14.10;;
68126;SDS011;54931;52.098;21.006;2022-11-06T02:46:05;36.50;;;14.10;;
68126;SDS011;54931;52.098;21.006;2022-11-06T02:48:41;33.40;;;14.40;;
68126;SDS011;54931;52.098;21.006;2022-11-06T02:51:15;33.50;;;15.00;;
68126;SDS011;54931;52.098;21.006;2022-11-06T02:53:48;35.10;;;14.20;;
68126;SDS011;54931;52.098;21.006;2022-11-06T02:56:19;32.80;;;13.40;;
68126;SDS011;54931;52.098;21.006;2022-11-06T02:59:02;30.90;;;14.80;;
68126;SDS011;54931;52.098;21.006;2022-11-06T03:01:57;39.80;;;14.90;;
68126;SDS011;54931;52.098;21.006;2022-11-06T03:04:34;34.30;;;14.70;;
68126;SDS011;54931;52.098;21.006;2022-11-06T03:09:40;32.80;;;13.10;;
68126;SDS011;54931;52.098;21.006;2022-11-06T03:12:19;28.40;;;12.50;;
68126;SDS011;54931;52.098;21.006;2022-11-06T03:15:33;34.70;;;14.20;;
68126;SDS011;54931;52.098;21.006;2022-11-06T03:20:44;31.70;;;13.90;;
68126;SDS011;54931;52.098;21.006;2022-11-06T03:23:54;34.20;;;14.10;;
68126;SDS011;54931;52.098;21.006;2022-11-06T03:26:29;31.50;;;13.60;;
68126;SDS011;54931;52.098;21.006;2022-11-06T03:32:22;33.30;;;13.50;;
68126;SDS011;54931;52.098;21.006;2022-11-06T03:34:55;30.40;;;13.40;;
68126;SDS011;54931;52.098;21.006;2022-11-06T03:37:58;39.40;;;16.10;;
68126;SDS011;54931;52.098;21.006;2022-11-06T03:40:33;46.50;;;14.90;;
68126;SDS011;54931;52.098;21.006;2022-11-06T03:43:05;38.90;;;15.40;;
68126;SDS011;54931;52.098;21.006;2022-11-06T03:45:35;43.10;;;16.20;;
68126;SDS011;54931;52.098;21.006;2022-11-06T03:48:13;41.90;;;15.60;;
68126;SDS011;54931;52.098;21.006;2022-11-06T03:50:53;32.40;;;14.30;;
68126;SDS011;54931;52.098;21.006;2022-11-06T03:53:31;37.50;;;14.80;;
68126;SDS011;54931;52.098;21.006;2022-11-06T03:56:08;31.20;;;13.80;;
68126;SDS011;54931;52.098;21.006;2022-11-06T03:58:44;34.00;;;14.10;;
68126;SDS011;54931;52.098;21.006;2022-11-06T04:01:17;38.30;;;14.10;;
68126;SDS011;54931;52.098;21.006;2022-11-06T04:03:58;32.20;;;14.50;;
68126;SDS011;54931;52.098;21.006;2022-11-06T04:06:36;29.60;;;13.40;;
68126;SDS011;54931;52.098;21.006;2022-11-06T04:09:05;31.00;;;14.30;;
68126;SDS011;54931;52.098;21.006;2022-11-06T04:11:56;38.00;;;14.80;;
68126;SDS011;54931;52.098;21.006;2022-11-06T04:14:46;36.60;;;14.40;;
68126;SDS011;54931;52.098;21.006;2022-11-06T04:17:17;34.00;;;14.10;;
68126;SDS011;54931;52.098;21.006;2022-11-06T04:19:49;33.00;;;13.90;;
68126;SDS011;54931;52.098;21.006;2022-11-06T04:22:51;32.70;;;13.20;;
68126;SDS011;54931;52.098;21.006;2022-11-06T04:40:36;33.60;;;14.50;;
68126;SDS011;54931;52.098;21.006;2022-11-06T04:43:22;31.60;;;13.00;;
68126;SDS011;54931;52.098;21.006;2022-11-06T04:45:58;31.90;;;13.60;;
68126;SDS011;54931;52.098;21.006;2022-11-06T04:48:28;32.30;;;13.60;;
68126;SDS011;54931;52.098;21.006;2022-11-06T04:51:00;31.90;;;13.80;;
68126;SDS011;54931;52.098;21.006;2022-11-06T04:53:31;34.90;;;13.90;;
68126;SDS011;54931;52.098;21.006;2022-11-06T04:56:09;36.60;;;14.70;;
68126;SDS011;54931;52.098;21.006;2022-11-06T04:58:38;38.20;;;14.00;;
68126;SDS011;54931;52.098;21.006;2022-11-06T05:01:07;37.40;;;13.70;;
68126;SDS011;54931;52.098;21.006;2022-11-06T05:03:34;34.70;;;14.00;;
68126;SDS011;54931;52.098;21.006;2022-11-06T05:06:01;32.60;;;13.90;;
68126;SDS011;54931;52.098;21.006;2022-11-06T05:08:29;35.00;;;15.10;;
68126;SDS011;54931;52.098;21.006;2022-11-06T05:10:56;32.10;;;13.40;;
68126;SDS011;54931;52.098;21.006;2022-11-06T05:13:23;31.50;;;13.40;;
68126;SDS011;54931;52.098;21.006;2022-11-06T05:15:55;25.90;;;11.40;;
68126;SDS011;54931;52.098;21.006;2022-11-06T05:18:24;32.30;;;13.90;;
68126;SDS011;54931;52.098;21.006;2022-11-06T05:20:52;29.40;;;13.20;;
68126;SDS011;54931;52.098;21.006;2022-11-06T05:23:39;32.70;;;13.30;;
68126;SDS011;54931;52.098;21.006;2022-11-06T05:26:07;32.50;;;13.50;;
68126;SDS011;54931;52.098;21.006;2022-11-06T05:28:34;22.50;;;11.90;;
68126;SDS011;54931;52.098;21.006;2022-11-06T05:31:02;28.00;;;12.00;;
68126;SDS011;54931;52.098;21.006;2022-11-06T05:33:29;26.40;;;12.50;;
68126;SDS011;54931;52.098;21.006;2022-11-06T05:36:01;23.60;;;11.70;;
68126;SDS011;54931;52.098;21.006;2022-11-06T05:38:32;27.10;;;11.20;;
68126;SDS011;54931;52.098;21.006;2022-11-06T05:40:59;25.20;;;12.20;;
68126;SDS011;54931;52.098;21.006;2022-11-06T05:43:27;26.50;;;12.40;;
68126;SDS011;54931;52.098;21.006;2022-11-06T05:45:54;28.30;;;12.00;;
68126;SDS011;54931;52.098;21.006;2022-11-06T05:48:22;27.80;;;11.30;;
68126;SDS011;54931;52.098;21.006;2022-11-06T05:50:49;26.50;;;11.30;;
68126;SDS011;54931;52.098;21.006;2022-11-06T05:53:16;19.70;;;10.00;;
68126;SDS011;54931;52.098;21.006;2022-11-06T05:55:46;23.30;;;11.10;;
68126;SDS011;54931;52.098;21.006;2022-11-06T05:58:13;20.20;;;10.40;;
68126;SDS011;54931;52.098;21.006;2022-11-06T06:00:40;22.60;;;10.50;;
68126;SDS011;54931;52.098;21.006;2022-11-06T06:03:08;22.40;;;10.50;;
68126;SDS011;54931;52.098;21.006;2022-11-06T06:05:36;22.10;;;10.20;;
68126;SDS011;54931;52.098;21.006;2022-11-06T06:08:04;22.70;;;10.30;;
68126;SDS011;54931;52.098;21.006;2022-11-06T06:10:32;18.70;;;8.90;;
68126;SDS011;54931;52.098;21.006;2022-11-06T06:12:59;19.10;;;9.60;;
68126;SDS011;54931;52.098;21.006;2022-11-06T06:15:26;25.00;;;10.40;;
68126;SDS011;54931;52.098;21.006;2022-11-06T06:17:53;21.30;;;10.30;;
68126;SDS011;54931;52.098;21.006;2022-11-06T06:20:20;20.30;;;10.40;;
68126;SDS011;54931;52.098;21.006;2022-11-06T06:22:57;22.70;;;10.40;;
68126;SDS011;54931;52.098;21.006;2022-11-06T06:25:26;21.60;;;10.10;;
68126;SDS011;54931;52.098;21.006;2022-11-06T06:27:54;18.40;;;8.90;;
68126;SDS011;54931;52.098;21.006;2022-11-06T06:30:23;18.00;;;8.70;;
68126;SDS011;54931;52.098;21.006;2022-11-06T06:32:52;16.60;;;8.60;;
68126;SDS011;54931;52.098;21.006;2022-11-06T06:35:20;18.70;;;8.70;;
68126;SDS011;54931;52.098;21.006;2022-11-06T06:37:52;17.40;;;8.50;;
68126;SDS011;54931;52.098;21.006;2022-11-06T06:40:20;17.90;;;8.50;;
68126;SDS011;54931;52.098;21.006;2022-11-06T06:42:49;21.20;;;9.80;;
68126;SDS011;54931;52.098;21.006;2022-11-06T06:45:16;17.30;;;8.70;;
68126;SDS011;54931;52.098;21.006;2022-11-06T06:47:44;18.10;;;8.50;;
68126;SDS011;54931;52.098;21.006;2022-11-06T06:50:11;21.10;;;9.40;;
68126;SDS011;54931;52.098;21.006;2022-11-06T06:52:39;20.60;;;9.70;;
68126;SDS011;54931;52.098;21.006;2022-11-06T06:55:06;20.20;;;8.70;;
68126;SDS011;54931;52.098;21.006;2022-11-06T06:57:35;18.30;;;9.00;;
68126;SDS011;54931;52.098;21.006;2022-11-06T07:00:03;21.70;;;8.60;;
68126;SDS011;54931;52.098;21.006;2022-11-06T07:02:30;21.30;;;9.10;;
68126;SDS011;54931;52.098;21.006;2022-11-06T07:04:58;23.00;;;9.10;;
68126;SDS011;54931;52.098;21.006;2022-11-06T07:07:26;19.80;;;9.40;;
68126;SDS011;54931;52.098;21.006;2022-11-06T07:09:53;21.50;;;9.60;;
68126;SDS011;54931;52.098;21.006;2022-11-06T07:12:21;20.70;;;8.80;;
68126;SDS011;54931;52.098;21.006;2022-11-06T07:14:49;16.40;;;7.80;;
68126;SDS011;54931;52.098;21.006;2022-11-06T07:17:17;17.70;;;8.60;;
68126;SDS011;54931;52.098;21.006;2022-11-06T07:19:44;16.50;;;8.50;;
68126;SDS011;54931;52.098;21.006;2022-11-06T07:22:11;19.50;;;8.60;;
68126;SDS011;54931;52.098;21.006;2022-11-06T07:24:39;21.90;;;8.90;;
68126;SDS011;54931;52.098;21.006;2022-11-06T07:27:06;17.20;;;8.40;;
68126;SDS011;54931;52.098;21.006;2022-11-06T07:29:34;17.80;;;8.10;;
68126;SDS011;54931;52.098;21.006;2022-11-06T07:32:02;18.00;;;9.10;;
68126;SDS011;54931;52.098;21.006;2022-11-06T07:34:29;18.60;;;9.70;;
68126;SDS011;54931;52.098;21.006;2022-11-06T07:36:57;19.60;;;8.80;;
68126;SDS011;54931;52.098;21.006;2022-11-06T07:39:24;16.10;;;8.10;;
68126;SDS011;54931;52.098;21.006;2022-11-06T07:41:51;23.60;;;9.50;;
68126;SDS011;54931;52.098;21.006;2022-11-06T07:44:19;18.90;;;9.20;;
68126;SDS011;54931;52.098;21.006;2022-11-06T07:46:46;16.60;;;7.50;;
68126;SDS011;54931;52.098;21.006;2022-11-06T07:49:13;17.80;;;8.30;;
68126;SDS011;54931;52.098;21.006;2022-11-06T07:51:42;16.70;;;7.30;;
68126;SDS011;54931;52.098;21.006;2022-11-06T07:54:11;16.40;;;7.90;;
68126;SDS011;54931;52.098;21.006;2022-11-06T07:56:38;16.30;;;8.20;;
68126;SDS011;54931;52.098;21.006;2022-11-06T07:59:05;17.90;;;8.50;;
68126;SDS011;54931;52.098;21.006;2022-11-06T08:01:32;14.00;;;7.70;;
68126;SDS011;54931;52.098;21.006;2022-11-06T08:04:00;18.10;;;9.00;;
68126;SDS011;54931;52.098;21.006;2022-11-06T08:06:27;15.80;;;7.80;;
68126;SDS011;54931;52.098;21.006;2022-11-06T08:08:54;16.40;;;8.30;;
68126;SDS011;54931;52.098;21.006;2022-11-06T08:11:21;17.10;;;8.20;;
68126;SDS011;54931;52.098;21.006;2022-11-06T08:13:49;16.80;;;8.00;;
68126;SDS011;54931;52.098;21.006;2022-11-06T08:16:16;16.60;;;8.50;;
68126;SDS011;54931;52.098;21.006;2022-11-06T08:18:43;15.20;;;7.80;;
68126;SDS011;54931;52.098;21.006;2022-11-06T08:21:10;16.30;;;8.60;;
68126;SDS011;54931;52.098;21.006;2022-11-06T08:23:38;19.20;;;8.70;;
68126;SDS011;54931;52.098;21.006;2022-11-06T08:26:05;16.10;;;7.90;;
68126;SDS011;54931;52.098;21.006;2022-11-06T08:28:33;14.80;;;7.90;;
68126;SDS011;54931;52.098;21.006;2022-11-06T08:31:07;15.20;;;7.90;;
68126;SDS011;54931;52.098;21.006;2022-11-06T08:33:36;14.00;;;7.90;;
68126;SDS011;54931;52.098;21.006;2022-11-06T08:36:06;21.80;;;9.40;;
68126;SDS011;54931;52.098;21.006;2022-11-06T08:38:34;16.30;;;8.10;;
68126;SDS011;54931;52.098;21.006;2022-11-06T08:41:03;15.90;;;8.40;;
68126;SDS011;54931;52.098;21.006;2022-11-06T08:43:33;16.40;;;9.00;;
68126;SDS011;54931;52.098;21.006;2022-11-06T08:46:01;14.70;;;8.40;;
68126;SDS011;54931;52.098;21.006;2022-11-06T08:48:29;13.20;;;6.70;;
68126;SDS011;54931;52.098;21.006;2022-11-06T08:50:56;14.20;;;8.00;;
68126;SDS011;54931;52.098;21.006;2022-11-06T08:53:24;17.00;;;9.30;;
68126;SDS011;54931;52.098;21.006;2022-11-06T08:55:51;16.70;;;8.30;;
68126;SDS011;54931;52.098;21.006;2022-11-06T08:58:19;16.80;;;8.20;;
68126;SDS011;54931;52.098;21.006;2022-11-06T09:00:46;22.60;;;9.60;;
68126;SDS011;54931;52.098;21.006;2022-11-06T09:03:15;17.30;;;8.80;;
68126;SDS011;54931;52.098;21.006;2022-11-06T09:05:45;18.20;;;9.00;;
68126;SDS011;54931;52.098;21.006;2022-11-06T09:08:13;16.00;;;9.10;;
68126;SDS011;54931;52.098;21.006;2022-11-06T09:10:42;22.90;;;11.20;;
68126;SDS011;54931;52.098;21.006;2022-11-06T09:13:10;15.50;;;7.70;;
68126;SDS011;54931;52.098;21.006;2022-11-06T09:15:38;15.50;;;7.80;;
68126;SDS011;54931;52.098;21.006;2022-11-06T09:18:06;16.00;;;7.60;;
68126;SDS011;54931;52.098;21.006;2022-11-06T09:20:34;14.00;;;7.40;;
68126;SDS011;54931;52.098;21.006;2022-11-06T09:23:04;14.50;;;7.40;;
68126;SDS011;54931;52.098;21.006;2022-11-06T09:25:32;17.00;;;8.50;;
68126;SDS011;54931;52.098;21.006;2022-11-06T09:28:00;14.50;;;7.90;;
68126;SDS011;54931;52.098;21.006;2022-11-06T09:30:29;17.40;;;8.60;;
68126;SDS011;54931;52.098;21.006;2022-11-06T09:33:01;17.80;;;8.50;;
68126;SDS011;54931;52.098;21.006;2022-11-06T09:35:31;18.50;;;8.80;;
68126;SDS011;54931;52.098;21.006;2022-11-06T09:38:04;18.30;;;10.20;;
68126;SDS011;54931;52.098;21.006;2022-11-06T09:40:47;18.80;;;10.10;;
68126;SDS011;54931;52.098;21.006;2022-11-06T09:43:41;14.80;;;8.40;;
68126;SDS011;54931;52.098;21.006;2022-11-06T09:52:06;20.80;;;10.30;;
68126;SDS011;54931;52.098;21.006;2022-11-06T09:54:43;22.00;;;10.20;;
68126;SDS011;54931;52.098;21.006;2022-11-06T09:57:20;21.20;;;10.10;;
68126;SDS011;54931;52.098;21.006;2022-11-06T09:59:55;20.50;;;10.80;;
68126;SDS011;54931;52.098;21.006;2022-11-06T10:02:54;19.30;;;9.90;;
68126;SDS011;54931;52.098;21.006;2022-11-06T10:05:32;20.90;;;9.50;;
68126;SDS011;54931;52.098;21.006;2022-11-06T10:08:05;16.80;;;9.10;;
68126;SDS011;54931;52.098;21.006;2022-11-06T10:10:50;19.50;;;10.10;;
68126;SDS011;54931;52.098;21.006;2022-11-06T10:14:35;20.90;;;10.10;;
68126;SDS011;54931;52.098;21.006;2022-11-06T10:17:09;16.80;;;9.50;;
68126;SDS011;54931;52.098;21.006;2022-11-06T10:20:15;19.90;;;9.80;;
68126;SDS011;54931;52.098;21.006;2022-11-06T10:23:02;16.20;;;9.00;;
68126;SDS011;54931;52.098;21.006;2022-11-06T10:26:11;23.60;;;9.70;;
68126;SDS011;54931;52.098;21.006;2022-11-06T10:29:03;17.00;;;9.30;;
68126;SDS011;54931;52.098;21.006;2022-11-06T10:35:12;23.00;;;10.70;;
68126;SDS011;54931;52.098;21.006;2022-11-06T10:38:05;23.10;;;10.10;;
68126;SDS011;54931;52.098;21.006;2022-11-06T10:40:38;19.40;;;9.50;;
68126;SDS011;54931;52.098;21.006;2022-11-06T10:46:22;20.60;;;10.40;;
68126;SDS011;54931;52.098;21.006;2022-11-06T10:49:05;24.00;;;11.10;;
68126;SDS011;54931;52.098;21.006;2022-11-06T10:55:05;21.20;;;9.80;;
68126;SDS011;54931;52.098;21.006;2022-11-06T10:57:58;20.40;;;9.90;;
68126;SDS011;54931;52.098;21.006;2022-11-06T11:00:32;19.10;;;9.60;;
68126;SDS011;54931;52.098;21.006;2022-11-06T11:03:02;21.60;;;9.50;;
68126;SDS011;54931;52.098;21.006;2022-11-06T11:05:41;17.50;;;8.50;;
68126;SDS011;54931;52.098;21.006;2022-11-06T11:08:32;18.10;;;9.40;;
68126;SDS011;54931;52.098;21.006;2022-11-06T11:11:14;18.70;;;9.70;;
68126;SDS011;54931;52.098;21.006;2022-11-06T11:13:50;21.40;;;9.20;;
68126;SDS011;54931;52.098;21.006;2022-11-06T11:16:41;20.60;;;10.10;;
68126;SDS011;54931;52.098;21.006;2022-11-06T11:19:31;17.20;;;8.30;;
68126;SDS011;54931;52.098;21.006;2022-11-06T11:22:17;23.30;;;10.00;;
68126;SDS011;54931;52.098;21.006;2022-11-06T11:25:07;17.90;;;9.80;;
68126;SDS011;54931;52.098;21.006;2022-11-06T11:27:50;19.30;;;10.00;;
68126;SDS011;54931;52.098;21.006;2022-11-06T11:30:22;20.30;;;9.70;;
68126;SDS011;54931;52.098;21.006;2022-11-06T11:32:53;18.60;;;9.30;;
68126;SDS011;54931;52.098;21.006;2022-11-06T11:35:25;21.10;;;9.80;;
68126;SDS011;54931;52.098;21.006;2022-11-06T11:38:12;16.30;;;9.20;;
68126;SDS011;54931;52.098;21.006;2022-11-06T11:40:40;17.10;;;8.50;;
68126;SDS011;54931;52.098;21.006;2022-11-06T11:43:20;19.20;;;9.50;;
68126;SDS011;54931;52.098;21.006;2022-11-06T11:46:16;17.90;;;8.80;;
68126;SDS011;54931;52.098;21.006;2022-11-06T11:48:56;13.50;;;7.50;;
68126;SDS011;54931;52.098;21.006;2022-11-06T11:51:34;17.10;;;8.50;;
68126;SDS011;54931;52.098;21.006;2022-11-06T11:54:17;17.50;;;8.40;;
68126;SDS011;54931;52.098;21.006;2022-11-06T11:56:52;15.40;;;8.40;;
68126;SDS011;54931;52.098;21.006;2022-11-06T11:59:43;21.80;;;8.50;;
68126;SDS011;54931;52.098;21.006;2022-11-06T12:02:19;17.10;;;9.20;;
68126;SDS011;54931;52.098;21.006;2022-11-06T12:04:58;18.40;;;8.50;;
68126;SDS011;54931;52.098;21.006;2022-11-06T12:07:39;13.70;;;7.50;;
68126;SDS011;54931;52.098;21.006;2022-11-06T12:10:33;15.50;;;7.70;;
68126;SDS011;54931;52.098;21.006;2022-11-06T12:13:15;14.60;;;7.80;;
68126;SDS011;54931;52.098;21.006;2022-11-06T12:21:13;18.50;;;8.30;;
68126;SDS011;54931;52.098;21.006;2022-11-06T12:23:53;15.40;;;7.70;;
68126;SDS011;54931;52.098;21.006;2022-11-06T12:26:45;17.30;;;7.30;;
68126;SDS011;54931;52.098;21.006;2022-11-06T12:29:42;16.80;;;7.60;;
68126;SDS011;54931;52.098;21.006;2022-11-06T12:32:40;16.90;;;7.10;;
68126;SDS011;54931;52.098;21.006;2022-11-06T12:38:04;17.20;;;7.80;;
68126;SDS011;54931;52.098;21.006;2022-11-06T12:43:50;15.60;;;7.30;;
68126;SDS011;54931;52.098;21.006;2022-11-06T12:52:36;16.40;;;6.40;;
68126;SDS011;54931;52.098;21.006;2022-11-06T12:55:33;14.00;;;6.40;;
68126;SDS011;54931;52.098;21.006;2022-11-06T13:07:24;15.00;;;6.70;;
68126;SDS011;54931;52.098;21.006;2022-11-06T13:13:04;11.00;;;6.00;;
68126;SDS011;54931;52.098;21.006;2022-11-06T13:18:40;15.50;;;6.00;;
68126;SDS011;54931;52.098;21.006;2022-11-06T13:21:19;13.70;;;6.90;;
68126;SDS011;54931;52.098;21.006;2022-11-06T13:24:00;10.10;;;5.90;;
68126;SDS011;54931;52.098;21.006;2022-11-06T13:29:14;13.00;;;6.80;;
68126;SDS011;54931;52.098;21.006;2022-11-06T13:31:55;12.60;;;5.60;;
68126;SDS011;54931;52.098;21.006;2022-11-06T13:34:30;15.40;;;5.90;;
68126;SDS011;54931;52.098;21.006;2022-11-06T13:37:01;11.50;;;4.70;;
68126;SDS011;54931;52.098;21.006;2022-11-06T13:39:40;13.30;;;5.70;;
68126;SDS011;54931;52.098;21.006;2022-11-06T13:42:26;13.00;;;5.70;;
68126;SDS011;54931;52.098;21.006;2022-11-06T13:44:56;14.00;;;6.70;;
68126;SDS011;54931;52.098;21.006;2022-11-06T13:50:36;8.90;;;5.00;;
68126;SDS011;54931;52.098;21.006;2022-11-06T13:53:39;11.60;;;5.00;;
68126;SDS011;54931;52.098;21.006;2022-11-06T13:59:34;11.70;;;6.70;;
68126;SDS011;54931;52.098;21.006;2022-11-06T14:02:38;16.50;;;7.70;;
68126;SDS011;54931;52.098;21.006;2022-11-06T14:08:37;18.40;;;8.10;;
68126;SDS011;54931;52.098;21.006;2022-11-06T14:11:11;18.70;;;8.70;;
68126;SDS011;54931;52.098;21.006;2022-11-06T14:14:03;19.70;;;9.30;;
68126;SDS011;54931;52.098;21.006;2022-11-06T14:16:33;17.10;;;8.70;;
68126;SDS011;54931;52.098;21.006;2022-11-06T14:19:17;19.30;;;9.30;;
68126;SDS011;54931;52.098;21.006;2022-11-06T14:21:51;20.80;;;9.50;;
68126;SDS011;54931;52.098;21.006;2022-11-06T14:24:34;17.50;;;9.10;;
68126;SDS011;54931;52.098;21.006;2022-11-06T14:34:50;18.50;;;9.10;;
68126;SDS011;54931;52.098;21.006;2022-11-06T14:47:53;22.30;;;10.90;;
68126;SDS011;54931;52.098;21.006;2022-11-06T14:50:28;24.30;;;11.70;;
68126;SDS011;54931;52.098;21.006;2022-11-06T14:53:05;21.00;;;10.10;;
68126;SDS011;54931;52.098;21.006;2022-11-06T14:55:58;16.20;;;8.10;;
68126;SDS011;54931;52.098;21.006;2022-11-06T14:58:53;16.20;;;7.70;;
68126;SDS011;54931;52.098;21.006;2022-11-06T15:01:28;17.10;;;8.90;;
68126;SDS011;54931;52.098;21.006;2022-11-06T15:19:22;25.70;;;11.30;;
68126;SDS011;54931;52.098;21.006;2022-11-06T15:28:13;26.10;;;12.30;;
68126;SDS011;54931;52.098;21.006;2022-11-06T15:30:58;25.20;;;11.50;;
68126;SDS011;54931;52.098;21.006;2022-11-06T15:33:45;26.90;;;13.40;;
68126;SDS011;54931;52.098;21.006;2022-11-06T15:36:16;25.60;;;13.00;;
68126;SDS011;54931;52.098;21.006;2022-11-06T15:38:45;33.20;;;14.60;;
68126;SDS011;54931;52.098;21.006;2022-11-06T15:41:22;31.80;;;14.90;;
68126;SDS011;54931;52.098;21.006;2022-11-06T15:43:53;27.30;;;13.10;;
68126;SDS011;54931;52.098;21.006;2022-11-06T15:46:26;28.20;;;13.90;;
68126;SDS011;54931;52.098;21.006;2022-11-06T15:49:14;26.80;;;13.00;;
68126;SDS011;54931;52.098;21.006;2022-11-06T15:52:01;26.60;;;12.10;;
68126;SDS011;54931;52.098;21.006;2022-11-06T15:54:40;31.50;;;14.40;;
68126;SDS011;54931;52.098;21.006;2022-11-06T15:57:17;25.00;;;12.90;;
68126;SDS011;54931;52.098;21.006;2022-11-06T15:59:48;31.70;;;14.60;;
68126;SDS011;54931;52.098;21.006;2022-11-06T16:02:20;31.40;;;14.10;;
68126;SDS011;54931;52.098;21.006;2022-11-06T16:04:49;31.10;;;13.30;;
68126;SDS011;54931;52.098;21.006;2022-11-06T16:07:18;30.90;;;14.10;;
68126;SDS011;54931;52.098;21.006;2022-11-06T16:09:46;28.30;;;12.90;;
68126;SDS011;54931;52.098;21.006;2022-11-06T16:12:17;34.40;;;15.40;;
68126;SDS011;54931;52.098;21.006;2022-11-06T16:14:45;33.10;;;15.20;;
68126;SDS011;54931;52.098;21.006;2022-11-06T16:17:21;36.60;;;15.40;;
68126;SDS011;54931;52.098;21.006;2022-11-06T16:19:53;34.30;;;15.80;;
68126;SDS011;54931;52.098;21.006;2022-11-06T16:22:29;36.60;;;15.40;;
68126;SDS011;54931;52.098;21.006;2022-11-06T16:25:00;37.80;;;16.50;;
68126;SDS011;54931;52.098;21.006;2022-11-06T16:27:34;39.80;;;16.40;;
68126;SDS011;54931;52.098;21.006;2022-11-06T16:30:03;38.50;;;17.50;;
68126;SDS011;54931;52.098;21.006;2022-11-06T16:32:38;42.60;;;18.30;;
68126;SDS011;54931;52.098;21.006;2022-11-06T16:35:33;30.80;;;15.00;;
68126;SDS011;54931;52.098;21.006;2022-11-06T16:40:51;40.00;;;17.80;;
68126;SDS011;54931;52.098;21.006;2022-11-06T16:43:20;39.70;;;16.90;;
68126;SDS011;54931;52.098;21.006;2022-11-06T16:45:59;41.40;;;16.70;;
68126;SDS011;54931;52.098;21.006;2022-11-06T16:48:35;49.40;;;20.50;;
68126;SDS011;54931;52.098;21.006;2022-11-06T16:51:27;43.90;;;16.80;;
68126;SDS011;54931;52.098;21.006;2022-11-06T16:53:58;39.00;;;18.50;;
68126;SDS011;54931;52.098;21.006;2022-11-06T16:56:29;42.70;;;17.90;;
68126;SDS011;54931;52.098;21.006;2022-11-06T16:59:02;49.40;;;21.00;;
68126;SDS011;54931;52.098;21.006;2022-11-06T17:01:38;42.80;;;19.20;;
68126;SDS011;54931;52.098;21.006;2022-11-06T17:04:19;43.70;;;19.60;;
68126;SDS011;54931;52.098;21.006;2022-11-06T17:06:50;48.00;;;22.30;;
68126;SDS011;54931;52.098;21.006;2022-11-06T17:11:52;42.30;;;19.10;;
68126;SDS011;54931;52.098;21.006;2022-11-06T17:14:22;43.90;;;19.30;;
68126;SDS011;54931;52.098;21.006;2022-11-06T17:16:53;50.30;;;21.00;;
68126;SDS011;54931;52.098;21.006;2022-11-06T17:19:25;47.10;;;20.00;;